createdAt,value
2017-08-19T00:01:01.583Z,0
2017-08-19T00:02:11.115Z,0
2017-08-19T00:03:20.321Z,0
2017-08-19T00:04:29.858Z,0
2017-08-19T00:05:39.236Z,0
2017-08-19T00:06:48.117Z,0
2017-08-19T00:07:57.644Z,0
2017-08-19T00:09:07.176Z,0
2017-08-19T00:10:16.385Z,0
2017-08-19T00:11:25.921Z,0
2017-08-19T00:12:35.781Z,0
2017-08-19T00:13:44.999Z,0
2017-08-19T00:14:53.884Z,0
2017-08-19T00:16:03.097Z,0
2017-08-19T00:17:12.277Z,0
2017-08-19T00:18:21.156Z,0
2017-08-19T00:19:30.683Z,0
2017-08-19T00:20:39.890Z,0
2017-08-19T00:21:49.419Z,0
2017-08-19T00:22:58.458Z,0
2017-08-19T00:24:07.989Z,0
2017-08-19T00:25:17.193Z,0
2017-08-19T00:26:26.721Z,0
2017-08-19T00:27:36.583Z,0
2017-08-19T00:28:45.677Z,0
2017-08-19T00:29:55.204Z,0
2017-08-19T00:31:04.731Z,0
2017-08-19T00:32:13.950Z,0
2017-08-19T00:33:23.152Z,0
2017-08-19T00:34:32.409Z,0
2017-08-19T00:35:41.945Z,0
2017-08-19T00:36:51.478Z,0
2017-08-19T00:38:01.005Z,0
2017-08-19T00:39:10.864Z,0
2017-08-19T00:40:20.691Z,0
2017-08-19T00:41:29.581Z,0
2017-08-19T00:42:39.115Z,0
2017-08-19T00:43:48.970Z,0
2017-08-19T00:44:58.829Z,0
2017-08-19T00:46:09.158Z,0
2017-08-19T00:47:18.362Z,0
2017-08-19T00:48:27.891Z,0
2017-08-19T00:49:37.418Z,0
2017-08-19T00:50:46.951Z,0
2017-08-19T00:51:56.495Z,0
2017-08-19T00:53:06.035Z,0
2017-08-19T00:54:15.889Z,0
2017-08-19T00:55:25.419Z,0
2017-08-19T00:56:34.949Z,0
2017-08-19T00:57:43.981Z,0
2017-08-19T00:58:53.836Z,0
2017-08-19T01:00:04.015Z,0
2017-08-19T01:01:13.556Z,0
2017-08-19T01:02:23.733Z,0
2017-08-19T01:03:33.638Z,0
2017-08-19T01:04:43.489Z,0
2017-08-19T01:05:52.707Z,0
2017-08-19T01:07:01.922Z,0
2017-08-19T01:08:11.133Z,0
2017-08-19T01:09:21.032Z,0
2017-08-19T01:10:30.884Z,0
2017-08-19T01:11:40.092Z,0
2017-08-19T01:12:49.299Z,0
2017-08-19T01:13:58.505Z,0
2017-08-19T01:15:07.760Z,0
2017-08-19T01:16:16.969Z,0
2017-08-19T01:17:26.177Z,0
2017-08-19T01:18:36.054Z,0
2017-08-19T01:19:46.227Z,0
2017-08-19T01:20:55.582Z,0
2017-08-19T01:22:05.439Z,0
2017-08-19T01:23:15.292Z,0
2017-08-19T01:24:24.501Z,0
2017-08-19T01:25:34.357Z,0
2017-08-19T01:26:44.186Z,0
2017-08-19T01:27:53.714Z,0
2017-08-19T01:29:03.284Z,0
2017-08-19T01:30:12.490Z,0
2017-08-19T01:31:22.370Z,0
2017-08-19T01:32:32.373Z,0
2017-08-19T01:33:41.589Z,0
2017-08-19T01:34:51.117Z,0
2017-08-19T01:36:00.647Z,0
2017-08-19T01:37:10.494Z,0
2017-08-19T01:38:19.845Z,0
2017-08-19T01:39:29.374Z,0
2017-08-19T01:40:38.583Z,0
2017-08-19T01:41:48.121Z,0
2017-08-19T01:42:57.646Z,0
2017-08-19T01:44:07.010Z,0
2017-08-19T01:45:16.538Z,0
2017-08-19T01:46:25.738Z,0
2017-08-19T01:47:35.268Z,0
2017-08-19T01:48:44.503Z,0
2017-08-19T01:49:54.442Z,0
2017-08-19T01:51:04.298Z,0
2017-08-19T01:52:14.148Z,0
2017-08-19T01:53:23.027Z,0
2017-08-19T01:54:32.553Z,0
2017-08-19T01:55:42.010Z,0
2017-08-19T01:56:51.538Z,0
2017-08-19T01:58:01.717Z,0
2017-08-19T01:59:11.568Z,0
2017-08-19T02:00:20.450Z,0
2017-08-19T02:01:30.132Z,0
2017-08-19T02:02:39.984Z,0
2017-08-19T02:03:49.515Z,0
2017-08-19T02:04:58.723Z,0
2017-08-19T02:06:07.928Z,0
2017-08-19T02:07:17.778Z,0
2017-08-19T02:08:26.983Z,0
2017-08-19T02:09:36.512Z,0
2017-08-19T02:10:45.393Z,0
2017-08-19T02:11:54.923Z,0
2017-08-19T02:13:03.959Z,0
2017-08-19T02:14:13.486Z,0
2017-08-19T02:15:22.369Z,0
2017-08-19T02:16:32.546Z,0
2017-08-19T02:17:42.397Z,0
2017-08-19T02:18:52.177Z,0
2017-08-19T02:20:01.384Z,0
2017-08-19T02:21:10.909Z,0
2017-08-19T02:22:20.435Z,0
2017-08-19T02:23:29.639Z,0
2017-08-19T02:24:38.842Z,0
2017-08-19T02:25:48.046Z,0
2017-08-19T02:26:57.630Z,0
2017-08-19T02:28:07.491Z,0
2017-08-19T02:29:16.712Z,0
2017-08-19T02:30:26.392Z,0
2017-08-19T02:31:35.920Z,0
2017-08-19T02:32:45.801Z,0
2017-08-19T02:33:55.336Z,0
2017-08-19T02:35:04.872Z,0
2017-08-19T02:36:14.551Z,0
2017-08-19T02:37:24.083Z,0
2017-08-19T02:38:33.297Z,0
2017-08-19T02:39:43.149Z,0
2017-08-19T02:40:52.678Z,0
2017-08-19T02:42:02.421Z,0
2017-08-19T02:43:11.960Z,0
2017-08-19T02:44:21.486Z,0
2017-08-19T02:45:31.664Z,0
2017-08-19T02:46:41.203Z,0
2017-08-19T02:47:50.781Z,0
2017-08-19T02:49:00.965Z,0
2017-08-19T02:50:10.872Z,0
2017-08-19T02:51:20.726Z,0
2017-08-19T02:52:30.908Z,0
2017-08-19T02:53:40.283Z,0
2017-08-19T02:54:49.814Z,0
2017-08-19T02:55:59.340Z,0
2017-08-19T02:57:08.869Z,0
2017-08-19T02:58:18.396Z,0
2017-08-19T02:59:27.754Z,0
2017-08-19T03:00:36.962Z,0
2017-08-19T03:01:46.486Z,0
2017-08-19T03:02:56.346Z,0
2017-08-19T03:04:06.526Z,0
2017-08-19T03:05:16.166Z,0
2017-08-19T03:06:25.690Z,0
2017-08-19T03:07:34.897Z,0
2017-08-19T03:08:44.421Z,0
2017-08-19T03:09:53.950Z,0
2017-08-19T03:11:03.902Z,0
2017-08-19T03:12:13.755Z,0
2017-08-19T03:13:23.605Z,0
2017-08-19T03:14:32.809Z,0
2017-08-19T03:15:41.690Z,0
2017-08-19T03:16:50.626Z,0
2017-08-19T03:18:00.164Z,0
2017-08-19T03:19:09.697Z,0
2017-08-19T03:20:19.547Z,0
2017-08-19T03:21:29.397Z,0
2017-08-19T03:22:39.548Z,0
2017-08-19T03:23:49.080Z,0
2017-08-19T03:24:58.931Z,0
2017-08-19T03:26:08.170Z,0
2017-08-19T03:27:17.704Z,0
2017-08-19T03:28:26.633Z,0
2017-08-19T03:29:36.806Z,0
2017-08-19T03:30:46.668Z,0
2017-08-19T03:31:56.521Z,0
2017-08-19T03:33:06.392Z,0
2017-08-19T03:34:15.695Z,0
2017-08-19T03:35:25.224Z,0
2017-08-19T03:36:34.436Z,0
2017-08-19T03:37:44.285Z,0
2017-08-19T03:38:54.138Z,0
2017-08-19T03:40:03.495Z,0
2017-08-19T03:41:13.350Z,0
2017-08-19T03:42:22.879Z,0
2017-08-19T03:43:32.728Z,0
2017-08-19T03:44:42.253Z,0
2017-08-19T03:45:51.705Z,0
2017-08-19T03:47:01.236Z,4
2017-08-19T03:48:11.099Z,4
2017-08-19T03:49:20.300Z,4
2017-08-19T03:50:29.829Z,4
2017-08-19T03:51:39.511Z,4
2017-08-19T03:52:48.393Z,8
2017-08-19T03:53:57.923Z,8
2017-08-19T03:55:08.104Z,8
2017-08-19T03:56:17.632Z,8
2017-08-19T03:57:26.670Z,12
2017-08-19T03:58:36.197Z,16
2017-08-19T03:59:45.402Z,16
2017-08-19T04:00:54.621Z,16
2017-08-19T04:02:04.146Z,20
2017-08-19T04:03:13.829Z,24
2017-08-19T04:04:23.364Z,28
2017-08-19T04:05:33.216Z,32
2017-08-19T04:06:42.738Z,36
2017-08-19T04:07:52.603Z,40
2017-08-19T04:09:02.557Z,48
2017-08-19T04:10:11.763Z,52
2017-08-19T04:11:21.295Z,56
2017-08-19T04:12:30.821Z,60
2017-08-19T04:13:40.677Z,68
2017-08-19T04:14:50.682Z,76
2017-08-19T04:16:00.531Z,84
2017-08-19T04:17:10.056Z,92
2017-08-19T04:18:18.938Z,96
2017-08-19T04:19:28.784Z,104
2017-08-19T04:20:39.011Z,112
2017-08-19T04:21:48.863Z,120
2017-08-19T04:22:58.393Z,132
2017-08-19T04:24:07.607Z,144
2017-08-19T04:25:17.458Z,152
2017-08-19T04:26:27.133Z,160
2017-08-19T04:27:36.336Z,176
2017-08-19T04:28:45.872Z,184
2017-08-19T04:29:55.402Z,196
2017-08-19T04:31:05.252Z,212
2017-08-19T04:32:14.831Z,224
2017-08-19T04:33:24.359Z,236
2017-08-19T04:34:33.562Z,252
2017-08-19T04:35:42.453Z,268
2017-08-19T04:36:51.980Z,280
2017-08-19T04:38:01.066Z,300
2017-08-19T04:39:10.613Z,316
2017-08-19T04:40:20.468Z,332
2017-08-19T04:41:29.674Z,344
2017-08-19T04:42:39.207Z,360
2017-08-19T04:43:48.573Z,372
2017-08-19T04:44:57.780Z,388
2017-08-19T04:46:07.306Z,404
2017-08-19T04:47:17.156Z,412
2017-08-19T04:48:26.685Z,432
2017-08-19T04:49:36.221Z,440
2017-08-19T04:50:46.080Z,456
2017-08-19T04:51:55.932Z,468
2017-08-19T04:53:05.788Z,480
2017-08-19T04:54:15.325Z,492
2017-08-19T04:55:25.329Z,508
2017-08-19T04:56:34.538Z,516
2017-08-19T04:57:44.399Z,528
2017-08-19T04:58:53.610Z,544
2017-08-19T05:00:02.831Z,556
2017-08-19T05:01:12.459Z,568
2017-08-19T05:02:22.308Z,576
2017-08-19T05:03:32.497Z,588
2017-08-19T05:04:42.026Z,604
2017-08-19T05:05:51.554Z,616
2017-08-19T05:07:01.829Z,628
2017-08-19T05:08:11.370Z,640
2017-08-19T05:09:20.575Z,652
2017-08-19T05:10:30.118Z,660
2017-08-19T05:11:39.646Z,672
2017-08-19T05:12:48.854Z,680
2017-08-19T05:13:59.351Z,688
2017-08-19T05:15:08.890Z,700
2017-08-19T05:16:18.419Z,708
2017-08-19T05:17:27.700Z,720
2017-08-19T05:18:37.530Z,728
2017-08-19T05:19:47.065Z,736
2017-08-19T05:20:56.270Z,748
2017-08-19T05:22:06.451Z,752
2017-08-19T05:23:15.655Z,760
2017-08-19T05:24:25.158Z,764
2017-08-19T05:25:34.360Z,776
2017-08-19T05:26:43.580Z,788
2017-08-19T05:27:53.112Z,800
2017-08-19T05:29:02.639Z,792
2017-08-19T05:30:11.957Z,804
2017-08-19T05:31:21.163Z,808
2017-08-19T05:32:30.376Z,812
2017-08-19T05:33:40.255Z,828
2017-08-19T05:34:49.794Z,840
2017-08-19T05:35:59.149Z,840
2017-08-19T05:37:08.683Z,848
2017-08-19T05:38:18.551Z,856
2017-08-19T05:39:28.402Z,868
2017-08-19T05:40:37.931Z,872
2017-08-19T05:41:47.237Z,876
2017-08-19T05:42:57.090Z,884
2017-08-19T05:44:06.942Z,888
2017-08-19T05:45:16.152Z,900
2017-08-19T05:46:26.007Z,928
2017-08-19T05:47:36.010Z,912
2017-08-19T05:48:45.217Z,936
2017-08-19T05:49:54.742Z,928
2017-08-19T05:51:03.947Z,900
2017-08-19T05:52:13.152Z,940
2017-08-19T05:53:23.310Z,1008
2017-08-19T05:54:32.515Z,964
2017-08-19T05:55:42.376Z,972
2017-08-19T05:56:51.614Z,1036
2017-08-19T05:58:01.148Z,1024
2017-08-19T05:59:10.978Z,1044
2017-08-19T06:00:20.513Z,1064
2017-08-19T06:01:30.089Z,1016
2017-08-19T06:02:39.965Z,1032
2017-08-19T06:03:48.854Z,1108
2017-08-19T06:04:58.755Z,1096
2017-08-19T06:06:08.293Z,1092
2017-08-19T06:07:17.495Z,1112
2017-08-19T06:08:26.708Z,1160
2017-08-19T06:09:36.026Z,1236
2017-08-19T06:10:45.330Z,1208
2017-08-19T06:11:54.865Z,1156
2017-08-19T06:13:04.397Z,1076
2017-08-19T06:14:13.929Z,1056
2017-08-19T06:15:22.814Z,1084
2017-08-19T06:16:32.019Z,1076
2017-08-19T06:17:41.872Z,1160
2017-08-19T06:18:52.049Z,1136
2017-08-19T06:20:01.901Z,1348
2017-08-19T06:21:10.790Z,1092
2017-08-19T06:22:20.796Z,1140
2017-08-19T06:23:30.009Z,1320
2017-08-19T06:24:39.910Z,1628
2017-08-19T06:25:49.118Z,1400
2017-08-19T06:26:58.698Z,1356
2017-08-19T06:28:08.011Z,1416
2017-08-19T06:29:17.543Z,1360
2017-08-19T06:30:27.413Z,1424
2017-08-19T06:31:36.945Z,2004
2017-08-19T06:32:46.644Z,1488
2017-08-19T06:33:56.496Z,2276
2017-08-19T06:35:06.080Z,1756
2017-08-19T06:36:15.860Z,1412
2017-08-19T06:37:25.545Z,1940
2017-08-19T06:38:35.545Z,2008
2017-08-19T06:39:44.752Z,2708
2017-08-19T06:40:54.311Z,2512
2017-08-19T06:42:04.177Z,3316
2017-08-19T06:43:14.036Z,2780
2017-08-19T06:44:23.238Z,2192
2017-08-19T06:45:32.771Z,1652
2017-08-19T06:46:41.655Z,2196
2017-08-19T06:47:51.834Z,2828
2017-08-19T06:49:01.046Z,2568
2017-08-19T06:50:10.910Z,2736
2017-08-19T06:51:20.439Z,2516
2017-08-19T06:52:29.646Z,2072
2017-08-19T06:53:39.182Z,2592
2017-08-19T06:54:48.718Z,2932
2017-08-19T06:55:58.567Z,2860
2017-08-19T06:57:07.771Z,1628
2017-08-19T06:58:17.297Z,1540
2017-08-19T06:59:26.500Z,1588
2017-08-19T07:00:36.047Z,2520
2017-08-19T07:01:45.577Z,2676
2017-08-19T07:02:54.788Z,1976
2017-08-19T07:04:04.325Z,1376
2017-08-19T07:05:14.503Z,2224
2017-08-19T07:06:23.384Z,1500
2017-08-19T07:07:32.280Z,2824
2017-08-19T07:08:41.819Z,2272
2017-08-19T07:09:51.025Z,1820
2017-08-19T07:11:00.610Z,1396
2017-08-19T07:12:09.838Z,1752
2017-08-19T07:13:19.042Z,3252
2017-08-19T07:14:28.900Z,2392
2017-08-19T07:15:38.429Z,3092
2017-08-19T07:16:48.111Z,2936
2017-08-19T07:17:57.969Z,3816
2017-08-19T07:19:07.509Z,3112
2017-08-19T07:20:16.723Z,2804
2017-08-19T07:21:25.928Z,3000
2017-08-19T07:22:35.290Z,2792
2017-08-19T07:23:44.832Z,2380
2017-08-19T07:24:54.372Z,2364
2017-08-19T07:26:04.230Z,1844
2017-08-19T07:27:13.116Z,1596
2017-08-19T07:28:22.377Z,2212
2017-08-19T07:29:32.232Z,1980
2017-08-19T07:30:41.436Z,2224
2017-08-19T07:31:50.990Z,3952
2017-08-19T07:33:00.848Z,4888
2017-08-19T07:34:10.525Z,5620
2017-08-19T07:35:20.054Z,4492
2017-08-19T07:36:29.588Z,4620
2017-08-19T07:37:38.816Z,4364
2017-08-19T07:38:48.350Z,4204
2017-08-19T07:39:58.351Z,2920
2017-08-19T07:41:08.203Z,2600
2017-08-19T07:42:17.734Z,3924
2017-08-19T07:43:27.915Z,5140
2017-08-19T07:44:36.797Z,4040
2017-08-19T07:45:46.153Z,3812
2017-08-19T07:46:56.009Z,3436
2017-08-19T07:48:05.537Z,5116
2017-08-19T07:49:14.744Z,6524
2017-08-19T07:50:23.966Z,8040
2017-08-19T07:51:33.921Z,7412
2017-08-19T07:52:43.130Z,4956
2017-08-19T07:53:52.336Z,5120
2017-08-19T07:55:01.871Z,8032
2017-08-19T07:56:11.400Z,7404
2017-08-19T07:57:20.976Z,4296
2017-08-19T07:58:30.515Z,2808
2017-08-19T07:59:39.403Z,4444
2017-08-19T08:00:48.940Z,6408
2017-08-19T08:01:58.478Z,4444
2017-08-19T08:03:07.511Z,4848
2017-08-19T08:04:18.012Z,3836
2017-08-19T08:05:27.884Z,3708
2017-08-19T08:06:37.113Z,3388
2017-08-19T08:07:46.981Z,3120
2017-08-19T08:08:56.845Z,3288
2017-08-19T08:10:06.703Z,3488
2017-08-19T08:11:15.913Z,2804
2017-08-19T08:12:25.771Z,3576
2017-08-19T08:13:35.630Z,4228
2017-08-19T08:14:44.887Z,3964
2017-08-19T08:15:54.742Z,4124
2017-08-19T08:17:04.914Z,4488
2017-08-19T08:18:14.448Z,6132
2017-08-19T08:19:23.992Z,7364
2017-08-19T08:20:33.525Z,8948
2017-08-19T08:21:43.379Z,9212
2017-08-19T08:22:52.907Z,7032
2017-08-19T08:24:02.758Z,6384
2017-08-19T08:25:12.953Z,6396
2017-08-19T08:26:22.960Z,2336
2017-08-19T08:27:32.493Z,1892
2017-08-19T08:28:41.709Z,2124
2017-08-19T08:29:51.885Z,2728
2017-08-19T08:31:01.737Z,3452
2017-08-19T08:32:10.994Z,2004
2017-08-19T08:33:21.168Z,3920
2017-08-19T08:34:31.024Z,3480
2017-08-19T08:35:40.607Z,2996
2017-08-19T08:36:49.814Z,2680
2017-08-19T08:37:59.666Z,2220
2017-08-19T08:39:08.912Z,2540
2017-08-19T08:40:18.768Z,3732
2017-08-19T08:41:28.626Z,4316
2017-08-19T08:42:38.164Z,3968
2017-08-19T08:43:47.993Z,4172
2017-08-19T08:44:57.525Z,4724
2017-08-19T08:46:07.377Z,5124
2017-08-19T08:47:16.905Z,4952
2017-08-19T08:48:25.803Z,4808
2017-08-19T08:49:35.337Z,5332
2017-08-19T08:50:44.894Z,5692
2017-08-19T08:51:54.108Z,6840
2017-08-19T08:53:02.994Z,6512
2017-08-19T08:54:12.527Z,5760
2017-08-19T08:55:21.782Z,8324
2017-08-19T08:56:30.990Z,5472
2017-08-19T08:57:40.855Z,5572
2017-08-19T08:58:50.062Z,5160
2017-08-19T08:59:59.922Z,6856
2017-08-19T09:01:09.655Z,7364
2017-08-19T09:02:18.545Z,7456
2017-08-19T09:03:27.771Z,6988
2017-08-19T09:04:37.624Z,7544
2017-08-19T09:05:46.831Z,7756
2017-08-19T09:06:55.765Z,6856
2017-08-19T09:08:05.299Z,6112
2017-08-19T09:09:14.507Z,5996
2017-08-19T09:10:23.716Z,6276
2017-08-19T09:11:32.596Z,5952
2017-08-19T09:12:41.902Z,3692
2017-08-19T09:13:51.441Z,4832
2017-08-19T09:15:01.384Z,5616
2017-08-19T09:16:10.960Z,5216
2017-08-19T09:17:20.172Z,5812
2017-08-19T09:18:29.851Z,6840
2017-08-19T09:19:39.399Z,5756
2017-08-19T09:20:48.936Z,6340
2017-08-19T09:21:58.142Z,5992
2017-08-19T09:23:07.352Z,6124
2017-08-19T09:24:17.379Z,6600
2017-08-19T09:25:26.914Z,7120
2017-08-19T09:26:36.451Z,6292
2017-08-19T09:27:45.660Z,6424
2017-08-19T09:28:54.871Z,6860
2017-08-19T09:30:04.800Z,5572
2017-08-19T09:31:14.017Z,6124
2017-08-19T09:32:23.595Z,6368
2017-08-19T09:33:32.808Z,6836
2017-08-19T09:34:42.020Z,5084
2017-08-19T09:35:52.120Z,4540
2017-08-19T09:37:01.979Z,4444
2017-08-19T09:38:11.513Z,6596
2017-08-19T09:39:21.693Z,4984
2017-08-19T09:40:31.232Z,4460
2017-08-19T09:41:40.816Z,4688
2017-08-19T09:42:50.346Z,2844
2017-08-19T09:43:59.554Z,2660
2017-08-19T09:45:09.410Z,4020
2017-08-19T09:46:18.948Z,2568
2017-08-19T09:47:28.578Z,2352
2017-08-19T09:48:38.118Z,2308
2017-08-19T09:49:47.322Z,2612
2017-08-19T09:50:56.532Z,3716
2017-08-19T09:52:05.739Z,4408
2017-08-19T09:53:15.370Z,4776
2017-08-19T09:54:25.227Z,3292
2017-08-19T09:55:35.080Z,4168
2017-08-19T09:56:44.608Z,4380
2017-08-19T09:57:54.465Z,6156
2017-08-19T09:59:04.952Z,6668
2017-08-19T10:00:14.806Z,7092
2017-08-19T10:01:24.338Z,7360
2017-08-19T10:02:33.868Z,4228
2017-08-19T10:03:43.085Z,3784
2017-08-19T10:04:53.241Z,3512
2017-08-19T10:06:02.777Z,3040
2017-08-19T10:07:12.964Z,3016
2017-08-19T10:08:21.849Z,3840
2017-08-19T10:09:31.380Z,3548
2017-08-19T10:10:41.241Z,3508
2017-08-19T10:11:50.776Z,3016
2017-08-19T10:13:00.310Z,2100
2017-08-19T10:14:09.852Z,2556
2017-08-19T10:15:19.383Z,3836
2017-08-19T10:16:29.392Z,4028
2017-08-19T10:17:39.248Z,4016
2017-08-19T10:18:48.782Z,4672
2017-08-19T10:19:57.989Z,5260
2017-08-19T10:21:07.523Z,4508
2017-08-19T10:22:16.560Z,5500
2017-08-19T10:23:26.107Z,5380
2017-08-19T10:24:35.961Z,4340
2017-08-19T10:25:45.175Z,2676
2017-08-19T10:26:55.352Z,2628
2017-08-19T10:28:05.085Z,3260
2017-08-19T10:29:14.941Z,3052
2017-08-19T10:30:24.153Z,3444
2017-08-19T10:31:34.333Z,4436
2017-08-19T10:32:44.190Z,5332
2017-08-19T10:33:53.651Z,5356
2017-08-19T10:35:02.865Z,4916
2017-08-19T10:36:12.717Z,5796
2017-08-19T10:37:21.604Z,6120
2017-08-19T10:38:30.810Z,4524
2017-08-19T10:39:40.492Z,5072
2017-08-19T10:40:49.703Z,4720
2017-08-19T10:41:58.590Z,3804
2017-08-19T10:43:08.445Z,2788
2017-08-19T10:44:17.375Z,3172
2017-08-19T10:45:27.064Z,5012
2017-08-19T10:46:37.245Z,5752
2017-08-19T10:47:46.449Z,5296
2017-08-19T10:48:55.983Z,4496
2017-08-19T10:50:05.850Z,4144
2017-08-19T10:51:16.337Z,3420
2017-08-19T10:52:25.874Z,3500
2017-08-19T10:53:35.088Z,2508
2017-08-19T10:54:44.308Z,2376
2017-08-19T10:55:54.488Z,2548
2017-08-19T10:57:03.849Z,3028
2017-08-19T10:58:13.710Z,3808
2017-08-19T10:59:22.919Z,4800
2017-08-19T11:00:32.774Z,5052
2017-08-19T11:01:42.309Z,4104
2017-08-19T11:02:51.989Z,6032
2017-08-19T11:04:01.521Z,4136
2017-08-19T11:05:11.381Z,4644
2017-08-19T11:06:20.959Z,3388
2017-08-19T11:07:30.168Z,2820
2017-08-19T11:08:39.543Z,3372
2017-08-19T11:09:49.083Z,5132
2017-08-19T11:10:58.609Z,10892
2017-08-19T11:12:08.466Z,10924
2017-08-19T11:13:18.016Z,10256
2017-08-19T11:14:27.696Z,10028
2017-08-19T11:15:36.903Z,8688
2017-08-19T11:16:46.430Z,7364
2017-08-19T11:17:55.638Z,8304
2017-08-19T11:19:04.848Z,5240
2017-08-19T11:20:14.493Z,3804
2017-08-19T11:21:24.685Z,6748
2017-08-19T11:22:34.541Z,6852
2017-08-19T11:23:44.075Z,5700
2017-08-19T11:24:53.607Z,3960
2017-08-19T11:26:02.919Z,5548
2017-08-19T11:27:12.775Z,4872
2017-08-19T11:28:22.325Z,4328
2017-08-19T11:29:32.508Z,3916
2017-08-19T11:30:41.400Z,2444
2017-08-19T11:31:51.095Z,3484
2017-08-19T11:33:00.563Z,5768
2017-08-19T11:34:10.095Z,6636
2017-08-19T11:35:19.314Z,6612
2017-08-19T11:36:29.168Z,7612
2017-08-19T11:37:38.971Z,10096
2017-08-19T11:38:48.181Z,8616
2017-08-19T11:39:57.710Z,7192
2017-08-19T11:41:07.256Z,8564
2017-08-19T11:42:16.470Z,8192
2017-08-19T11:43:25.827Z,6520
2017-08-19T11:44:35.684Z,5580
2017-08-19T11:45:45.219Z,7420
2017-08-19T11:46:54.433Z,4752
2017-08-19T11:48:04.297Z,5236
2017-08-19T11:49:13.807Z,8480
2017-08-19T11:50:23.339Z,7588
2017-08-19T11:51:32.231Z,6228
2017-08-19T11:52:41.771Z,4060
2017-08-19T11:53:51.629Z,3752
2017-08-19T11:55:01.359Z,5860
2017-08-19T11:56:10.902Z,8740
2017-08-19T11:57:20.438Z,7424
2017-08-19T11:58:30.314Z,7592
2017-08-19T11:59:40.195Z,14516
2017-08-19T12:00:49.502Z,35488
2017-08-19T12:01:59.354Z,67488
2017-08-19T12:03:08.888Z,72576
2017-08-19T12:04:17.773Z,70880
2017-08-19T12:05:26.668Z,49440
2017-08-19T12:06:35.604Z,14524
2017-08-19T12:07:45.139Z,56128
2017-08-19T12:08:54.678Z,67232
2017-08-19T12:10:04.213Z,13976
2017-08-19T12:11:13.426Z,40960
2017-08-19T12:12:22.738Z,15164
2017-08-19T12:13:32.597Z,54432
2017-08-19T12:14:42.128Z,34144
2017-08-19T12:15:51.341Z,29984
2017-08-19T12:17:00.883Z,32512
2017-08-19T12:18:10.570Z,23840
2017-08-19T12:19:19.469Z,42656
2017-08-19T12:20:29.651Z,57856
2017-08-19T12:21:39.189Z,45472
2017-08-19T12:22:49.046Z,39712
2017-08-19T12:23:59.059Z,42400
2017-08-19T12:25:08.603Z,46624
2017-08-19T12:26:18.480Z,58528
2017-08-19T12:27:27.693Z,64448
2017-08-19T12:28:37.873Z,67776
2017-08-19T12:29:47.194Z,64928
2017-08-19T12:30:56.409Z,67488
2017-08-19T12:32:06.287Z,68608
2017-08-19T12:33:15.834Z,66208
2017-08-19T12:34:25.378Z,57120
2017-08-19T12:35:35.394Z,28800
2017-08-19T12:36:44.935Z,15376
2017-08-19T12:37:54.486Z,18364
2017-08-19T12:39:04.354Z,16000
2017-08-19T12:40:14.215Z,31520
2017-08-19T12:41:23.587Z,22272
2017-08-19T12:42:32.809Z,17664
2017-08-19T12:43:42.346Z,41408
2017-08-19T12:44:52.526Z,41440
2017-08-19T12:46:02.396Z,47424
2017-08-19T12:47:12.411Z,52128
2017-08-19T12:48:21.970Z,40992
2017-08-19T12:49:31.514Z,33568
2017-08-19T12:50:40.404Z,37984
2017-08-19T12:51:49.946Z,40064
2017-08-19T12:53:00.113Z,38080
2017-08-19T12:54:09.335Z,12528
2017-08-19T12:55:18.226Z,35360
2017-08-19T12:56:28.126Z,26496
2017-08-19T12:57:37.345Z,13096
2017-08-19T12:58:46.720Z,7948
2017-08-19T12:59:56.266Z,44896
2017-08-19T13:01:06.452Z,20544
2017-08-19T13:02:16.330Z,9664
2017-08-19T13:03:26.199Z,14028
2017-08-19T13:04:35.518Z,13988
2017-08-19T13:05:44.736Z,13976
2017-08-19T13:06:53.953Z,19808
2017-08-19T13:08:03.492Z,9156
2017-08-19T13:09:13.684Z,44128
2017-08-19T13:10:23.273Z,15612
2017-08-19T13:11:32.488Z,44736
2017-08-19T13:12:42.027Z,8104
2017-08-19T13:13:51.568Z,7444
2017-08-19T13:15:01.430Z,6624
2017-08-19T13:16:11.120Z,13612
2017-08-19T13:17:20.663Z,21248
2017-08-19T13:18:30.541Z,16288
2017-08-19T13:19:40.078Z,7528
2017-08-19T13:20:49.619Z,7656
2017-08-19T13:21:59.409Z,9948
2017-08-19T13:23:09.269Z,14020
2017-08-19T13:24:19.132Z,11548
2017-08-19T13:25:28.685Z,8520
2017-08-19T13:26:38.221Z,7088
2017-08-19T13:27:47.785Z,6504
2017-08-19T13:28:57.330Z,23296
2017-08-19T13:30:06.895Z,10052
2017-08-19T13:31:16.758Z,7376
2017-08-19T13:32:26.941Z,5924
2017-08-19T13:33:36.308Z,5156
2017-08-19T13:34:45.847Z,3428
2017-08-19T13:35:54.737Z,3184
2017-08-19T13:37:04.273Z,2756
2017-08-19T13:38:13.814Z,2264
2017-08-19T13:39:24.195Z,2536
2017-08-19T13:40:34.060Z,5580
2017-08-19T13:41:43.596Z,13676
2017-08-19T13:42:53.454Z,14468
2017-08-19T13:44:02.684Z,13388
2017-08-19T13:45:12.473Z,11796
2017-08-19T13:46:22.339Z,14276
2017-08-19T13:47:31.896Z,17120
2017-08-19T13:48:41.436Z,17376
2017-08-19T13:49:50.972Z,25760
2017-08-19T13:51:00.882Z,61536
2017-08-19T13:52:10.442Z,13452
2017-08-19T13:53:19.658Z,15148
2017-08-19T13:54:29.198Z,6544
2017-08-19T13:55:38.420Z,4484
2017-08-19T13:56:48.427Z,2572
2017-08-19T13:57:57.650Z,2224
2017-08-19T13:59:07.517Z,1572
2017-08-19T14:00:17.382Z,1312
2017-08-19T14:01:27.240Z,1992
2017-08-19T14:02:36.640Z,4936
2017-08-19T14:03:46.281Z,7680
2017-08-19T14:04:56.465Z,9720
2017-08-19T14:06:06.002Z,8240
2017-08-19T14:07:15.570Z,8388
2017-08-19T14:08:25.440Z,28448
2017-08-19T14:09:34.652Z,28288
2017-08-19T14:10:43.868Z,53920
2017-08-19T14:11:53.405Z,26144
2017-08-19T14:13:02.944Z,16160
2017-08-19T14:14:11.992Z,9988
2017-08-19T14:15:22.182Z,9220
2017-08-19T14:16:31.724Z,9976
2017-08-19T14:17:41.910Z,11936
2017-08-19T14:18:51.120Z,9536
2017-08-19T14:20:00.908Z,9296
2017-08-19T14:21:10.446Z,9528
2017-08-19T14:22:20.633Z,8352
2017-08-19T14:23:29.867Z,7508
2017-08-19T14:24:39.724Z,7972
2017-08-19T14:25:49.208Z,9300
2017-08-19T14:26:59.437Z,16480
2017-08-19T14:28:08.652Z,57600
2017-08-19T14:29:18.524Z,58240
2017-08-19T14:30:27.740Z,61920
2017-08-19T14:31:37.528Z,59392
2017-08-19T14:32:47.065Z,59744
2017-08-19T14:33:56.607Z,60992
2017-08-19T14:35:05.824Z,60416
2017-08-19T14:36:15.702Z,59744
2017-08-19T14:37:25.398Z,59712
2017-08-19T14:38:35.260Z,59264
2017-08-19T14:39:44.801Z,61152
2017-08-19T14:40:54.690Z,62528
2017-08-19T14:42:03.908Z,58624
2017-08-19T14:43:14.304Z,59744
2017-08-19T14:44:24.180Z,59680
2017-08-19T14:45:34.378Z,59936
2017-08-19T14:46:43.280Z,62176
2017-08-19T14:47:53.488Z,62304
2017-08-19T14:49:04.056Z,61056
2017-08-19T14:50:13.603Z,60704
2017-08-19T14:51:23.150Z,59648
2017-08-19T14:52:33.341Z,58720
2017-08-19T14:53:43.217Z,60160
2017-08-19T14:54:52.820Z,60096
2017-08-19T14:56:02.051Z,58112
2017-08-19T14:57:11.601Z,57568
2017-08-19T14:58:21.473Z,59936
2017-08-19T14:59:30.692Z,58848
2017-08-19T15:00:39.595Z,56736
2017-08-19T15:01:48.826Z,56064
2017-08-19T15:02:57.735Z,58496
2017-08-19T15:04:07.284Z,57408
2017-08-19T15:05:16.834Z,55904
2017-08-19T15:06:26.702Z,57280
2017-08-19T15:07:36.248Z,56608
2017-08-19T15:08:45.797Z,58784
2017-08-19T15:09:55.676Z,59616
2017-08-19T15:11:05.223Z,55808
2017-08-19T15:12:14.598Z,59424
2017-08-19T15:13:24.145Z,31264
2017-08-19T15:14:34.024Z,60640
2017-08-19T15:15:43.247Z,60160
2017-08-19T15:16:52.800Z,60128
2017-08-19T15:18:02.449Z,60096
2017-08-19T15:19:11.995Z,56608
2017-08-19T15:20:21.232Z,11424
2017-08-19T15:21:30.782Z,55616
2017-08-19T15:22:40.340Z,11532
2017-08-19T15:23:50.041Z,9256
2017-08-19T15:24:59.642Z,6560
2017-08-19T15:26:09.192Z,9628
2017-08-19T15:27:18.740Z,14016
2017-08-19T15:28:27.967Z,21472
2017-08-19T15:29:37.813Z,48512
2017-08-19T15:30:47.041Z,51936
2017-08-19T15:31:56.611Z,50208
2017-08-19T15:33:06.210Z,49536
2017-08-19T15:34:15.754Z,26784
2017-08-19T15:35:25.776Z,7616
2017-08-19T15:36:35.006Z,45632
2017-08-19T15:37:44.873Z,44896
2017-08-19T15:38:54.432Z,42400
2017-08-19T15:40:03.677Z,44512
2017-08-19T15:41:13.629Z,33056
2017-08-19T15:42:23.172Z,22144
2017-08-19T15:43:32.396Z,37568
2017-08-19T15:44:41.665Z,8460
2017-08-19T15:45:51.210Z,10712
2017-08-19T15:47:00.734Z,42976
2017-08-19T15:48:09.954Z,9328